sensor_id;sensor_type;location;lat;lon;timestamp;temperature;humidity
27803;DHT22;15182;48.174;11.562;2022-09-03T00:02:27;22.10;69.20
27803;DHT22;15182;48.174;11.562;2022-09-03T00:05:04;22.10;69.30
27803;DHT22;15182;48.174;11.562;2022-09-03T00:07:41;22.10;69.30
27803;DHT22;15182;48.174;11.562;2022-09-03T00:10:18;22.00;69.40
27803;DHT22;15182;48.174;11.562;2022-09-03T00:12:55;22.00;69.30
27803;DHT22;15182;48.174;11.562;2022-09-03T00:15:32;22.00;69.40
27803;DHT22;15182;48.174;11.562;2022-09-03T00:18:08;22.00;69.30
27803;DHT22;15182;48.174;11.562;2022-09-03T00:20:48;22.00;69.40
27803;DHT22;15182;48.174;11.562;2022-09-03T00:23:24;22.00;69.60
27803;DHT22;15182;48.174;11.562;2022-09-03T00:26:00;22.00;70.50
27803;DHT22;15182;48.174;11.562;2022-09-03T00:28:48;22.00;69.60
27803;DHT22;15182;48.174;11.562;2022-09-03T00:31:27;22.00;69.70
27803;DHT22;15182;48.174;11.562;2022-09-03T00:34:06;21.90;69.80
27803;DHT22;15182;48.174;11.562;2022-09-03T00:36:43;21.90;69.80
27803;DHT22;15182;48.174;11.562;2022-09-03T00:39:18;21.90;69.90
27803;DHT22;15182;48.174;11.562;2022-09-03T00:41:59;21.90;69.90
27803;DHT22;15182;48.174;11.562;2022-09-03T00:44:44;21.90;70.10
27803;DHT22;15182;48.174;11.562;2022-09-03T00:47:26;21.90;70.20
27803;DHT22;15182;48.174;11.562;2022-09-03T00:50:06;21.80;70.20
27803;DHT22;15182;48.174;11.562;2022-09-03T00:52:56;21.80;70.40
27803;DHT22;15182;48.174;11.562;2022-09-03T00:55:41;21.80;70.40
27803;DHT22;15182;48.174;11.562;2022-09-03T00:58:24;21.80;70.40
27803;DHT22;15182;48.174;11.562;2022-09-03T01:01:23;21.80;70.60
27803;DHT22;15182;48.174;11.562;2022-09-03T01:04:06;21.80;70.70
27803;DHT22;15182;48.174;11.562;2022-09-03T01:06:47;21.70;70.60
27803;DHT22;15182;48.174;11.562;2022-09-03T01:09:33;21.70;70.60
27803;DHT22;15182;48.174;11.562;2022-09-03T01:12:14;21.70;70.70
27803;DHT22;15182;48.174;11.562;2022-09-03T01:14:56;21.70;70.60
27803;DHT22;15182;48.174;11.562;2022-09-03T01:17:35;21.60;70.90
27803;DHT22;15182;48.174;11.562;2022-09-03T01:20:42;21.60;70.90
27803;DHT22;15182;48.174;11.562;2022-09-03T01:23:40;21.60;71.20
27803;DHT22;15182;48.174;11.562;2022-09-03T01:26:28;21.50;71.10
27803;DHT22;15182;48.174;11.562;2022-09-03T01:29:09;21.50;71.30
27803;DHT22;15182;48.174;11.562;2022-09-03T01:31:49;21.50;71.40
27803;DHT22;15182;48.174;11.562;2022-09-03T01:34:35;21.50;72.30
27803;DHT22;15182;48.174;11.562;2022-09-03T01:37:15;21.50;71.40
27803;DHT22;15182;48.174;11.562;2022-09-03T01:39:56;21.40;71.40
27803;DHT22;15182;48.174;11.562;2022-09-03T01:42:35;21.40;71.70
27803;DHT22;15182;48.174;11.562;2022-09-03T01:45:19;21.40;71.70
27803;DHT22;15182;48.174;11.562;2022-09-03T01:48:03;21.40;72.00
27803;DHT22;15182;48.174;11.562;2022-09-03T01:50:48;21.40;72.10
27803;DHT22;15182;48.174;11.562;2022-09-03T01:53:39;21.30;72.30
27803;DHT22;15182;48.174;11.562;2022-09-03T01:56:27;21.30;72.30
27803;DHT22;15182;48.174;11.562;2022-09-03T01:59:03;21.30;72.50
27803;DHT22;15182;48.174;11.562;2022-09-03T02:01:45;21.30;72.40
27803;DHT22;15182;48.174;11.562;2022-09-03T02:04:23;21.20;72.60
27803;DHT22;15182;48.174;11.562;2022-09-03T02:06:57;21.20;72.60
27803;DHT22;15182;48.174;11.562;2022-09-03T02:09:30;21.20;72.60
27803;DHT22;15182;48.174;11.562;2022-09-03T02:12:07;21.20;72.70
27803;DHT22;15182;48.174;11.562;2022-09-03T02:14:42;21.20;72.90
27803;DHT22;15182;48.174;11.562;2022-09-03T02:17:14;21.10;72.80
27803;DHT22;15182;48.174;11.562;2022-09-03T02:19:46;21.10;73.00
27803;DHT22;15182;48.174;11.562;2022-09-03T02:22:17;21.00;72.90
27803;DHT22;15182;48.174;11.562;2022-09-03T02:24:49;21.00;73.00
27803;DHT22;15182;48.174;11.562;2022-09-03T02:27:22;21.00;73.20
27803;DHT22;15182;48.174;11.562;2022-09-03T02:29:53;21.00;73.20
27803;DHT22;15182;48.174;11.562;2022-09-03T02:32:27;21.00;73.30
27803;DHT22;15182;48.174;11.562;2022-09-03T02:34:59;21.00;73.90
27803;DHT22;15182;48.174;11.562;2022-09-03T02:37:30;20.90;73.40
27803;DHT22;15182;48.174;11.562;2022-09-03T02:40:10;20.90;73.50
27803;DHT22;15182;48.174;11.562;2022-09-03T02:42:42;20.90;73.50
27803;DHT22;15182;48.174;11.562;2022-09-03T02:45:19;20.90;73.50
27803;DHT22;15182;48.174;11.562;2022-09-03T02:47:56;20.80;73.90
27803;DHT22;15182;48.174;11.562;2022-09-03T02:50:28;20.90;74.00
27803;DHT22;15182;48.174;11.562;2022-09-03T02:53:00;20.80;73.90
27803;DHT22;15182;48.174;11.562;2022-09-03T02:55:31;20.80;74.10
27803;DHT22;15182;48.174;11.562;2022-09-03T02:58:02;20.80;74.00
27803;DHT22;15182;48.174;11.562;2022-09-03T03:00:35;20.80;74.10
27803;DHT22;15182;48.174;11.562;2022-09-03T03:03:09;20.80;74.10
27803;DHT22;15182;48.174;11.562;2022-09-03T03:05:45;20.80;74.40
27803;DHT22;15182;48.174;11.562;2022-09-03T03:08:19;20.70;74.70
27803;DHT22;15182;48.174;11.562;2022-09-03T03:10:54;20.70;74.60
27803;DHT22;15182;48.174;11.562;2022-09-03T03:13:29;20.70;74.70
27803;DHT22;15182;48.174;11.562;2022-09-03T03:16:03;20.70;74.60
27803;DHT22;15182;48.174;11.562;2022-09-03T03:18:37;20.70;74.70
27803;DHT22;15182;48.174;11.562;2022-09-03T03:21:10;20.60;74.80
27803;DHT22;15182;48.174;11.562;2022-09-03T03:23:51;20.60;74.80
27803;DHT22;15182;48.174;11.562;2022-09-03T03:26:23;20.60;74.80
27803;DHT22;15182;48.174;11.562;2022-09-03T03:29:00;20.60;75.10
27803;DHT22;15182;48.174;11.562;2022-09-03T03:31:33;20.60;75.20
27803;DHT22;15182;48.174;11.562;2022-09-03T03:34:05;20.50;75.20
27803;DHT22;15182;48.174;11.562;2022-09-03T03:36:37;20.50;75.60
27803;DHT22;15182;48.174;11.562;2022-09-03T03:39:08;20.50;75.40
27803;DHT22;15182;48.174;11.562;2022-09-03T03:41:39;20.50;75.50
27803;DHT22;15182;48.174;11.562;2022-09-03T03:44:10;20.40;75.50
27803;DHT22;15182;48.174;11.562;2022-09-03T03:46:42;20.40;75.60
27803;DHT22;15182;48.174;11.562;2022-09-03T03:49:16;20.40;75.70
27803;DHT22;15182;48.174;11.562;2022-09-03T03:51:47;20.40;75.90
27803;DHT22;15182;48.174;11.562;2022-09-03T03:54:18;20.40;75.80
27803;DHT22;15182;48.174;11.562;2022-09-03T03:56:49;20.30;75.90
27803;DHT22;15182;48.174;11.562;2022-09-03T03:59:21;20.30;76.00
27803;DHT22;15182;48.174;11.562;2022-09-03T04:01:53;20.30;76.10
27803;DHT22;15182;48.174;11.562;2022-09-03T04:04:25;20.30;76.30
27803;DHT22;15182;48.174;11.562;2022-09-03T04:06:57;20.30;76.60
27803;DHT22;15182;48.174;11.562;2022-09-03T04:09:28;20.20;76.50
27803;DHT22;15182;48.174;11.562;2022-09-03T04:11:59;20.20;76.50
27803;DHT22;15182;48.174;11.562;2022-09-03T04:14:32;20.20;76.60
27803;DHT22;15182;48.174;11.562;2022-09-03T04:17:05;20.20;76.80
27803;DHT22;15182;48.174;11.562;2022-09-03T04:19:38;20.10;76.80
27803;DHT22;15182;48.174;11.562;2022-09-03T04:22:09;20.10;76.90
27803;DHT22;15182;48.174;11.562;2022-09-03T04:24:42;20.10;77.00
27803;DHT22;15182;48.174;11.562;2022-09-03T04:27:14;20.10;77.20
27803;DHT22;15182;48.174;11.562;2022-09-03T04:29:46;20.10;77.20
27803;DHT22;15182;48.174;11.562;2022-09-03T04:32:17;20.10;77.50
27803;DHT22;15182;48.174;11.562;2022-09-03T04:35:09;20.00;78.20
27803;DHT22;15182;48.174;11.562;2022-09-03T04:37:40;20.00;77.60
27803;DHT22;15182;48.174;11.562;2022-09-03T04:40:11;20.00;77.60
27803;DHT22;15182;48.174;11.562;2022-09-03T04:42:43;20.00;77.70
27803;DHT22;15182;48.174;11.562;2022-09-03T04:45:15;20.00;77.70
27803;DHT22;15182;48.174;11.562;2022-09-03T04:47:54;20.00;77.80
27803;DHT22;15182;48.174;11.562;2022-09-03T04:50:26;20.00;78.80
27803;DHT22;15182;48.174;11.562;2022-09-03T04:53:02;20.00;78.10
27803;DHT22;15182;48.174;11.562;2022-09-03T04:55:34;20.10;79.00
27803;DHT22;15182;48.174;11.562;2022-09-03T04:58:07;20.10;78.20
27803;DHT22;15182;48.174;11.562;2022-09-03T05:00:39;20.10;78.50
27803;DHT22;15182;48.174;11.562;2022-09-03T05:03:10;20.10;78.50
27803;DHT22;15182;48.174;11.562;2022-09-03T05:05:44;20.10;78.30
27803;DHT22;15182;48.174;11.562;2022-09-03T05:08:20;20.10;78.40
27803;DHT22;15182;48.174;11.562;2022-09-03T05:10:58;20.10;78.30
27803;DHT22;15182;48.174;11.562;2022-09-03T05:13:31;20.10;78.80
27803;DHT22;15182;48.174;11.562;2022-09-03T05:16:05;20.10;78.50
27803;DHT22;15182;48.174;11.562;2022-09-03T05:18:38;20.10;78.50
27803;DHT22;15182;48.174;11.562;2022-09-03T05:21:12;20.10;78.50
27803;DHT22;15182;48.174;11.562;2022-09-03T05:23:46;20.10;78.60
27803;DHT22;15182;48.174;11.562;2022-09-03T05:26:19;20.20;78.60
27803;DHT22;15182;48.174;11.562;2022-09-03T05:28:54;20.20;78.60
27803;DHT22;15182;48.174;11.562;2022-09-03T05:31:28;20.20;78.80
27803;DHT22;15182;48.174;11.562;2022-09-03T05:34:03;20.20;78.80
27803;DHT22;15182;48.174;11.562;2022-09-03T05:36:37;20.30;78.90
27803;DHT22;15182;48.174;11.562;2022-09-03T05:39:08;20.30;78.90
27803;DHT22;15182;48.174;11.562;2022-09-03T05:41:39;20.30;78.90
27803;DHT22;15182;48.174;11.562;2022-09-03T05:44:10;20.30;79.00
27803;DHT22;15182;48.174;11.562;2022-09-03T05:46:42;20.40;79.20
27803;DHT22;15182;48.174;11.562;2022-09-03T05:49:13;20.40;79.10
27803;DHT22;15182;48.174;11.562;2022-09-03T05:51:46;20.40;79.00
27803;DHT22;15182;48.174;11.562;2022-09-03T05:54:17;20.40;79.20
27803;DHT22;15182;48.174;11.562;2022-09-03T05:56:49;20.40;79.10
27803;DHT22;15182;48.174;11.562;2022-09-03T05:59:20;20.50;79.30
27803;DHT22;15182;48.174;11.562;2022-09-03T06:01:51;20.50;79.20
27803;DHT22;15182;48.174;11.562;2022-09-03T06:04:23;20.50;79.20
27803;DHT22;15182;48.174;11.562;2022-09-03T06:07:08;20.50;79.10
27803;DHT22;15182;48.174;11.562;2022-09-03T06:09:43;20.50;79.20
27803;DHT22;15182;48.174;11.562;2022-09-03T06:12:14;20.60;79.30
27803;DHT22;15182;48.174;11.562;2022-09-03T06:14:45;20.60;79.20
27803;DHT22;15182;48.174;11.562;2022-09-03T06:17:16;20.60;79.20
27803;DHT22;15182;48.174;11.562;2022-09-03T06:19:49;20.60;79.20
27803;DHT22;15182;48.174;11.562;2022-09-03T06:22:22;20.60;79.20
27803;DHT22;15182;48.174;11.562;2022-09-03T06:24:55;20.60;79.30
27803;DHT22;15182;48.174;11.562;2022-09-03T06:27:26;20.60;79.40
27803;DHT22;15182;48.174;11.562;2022-09-03T06:29:58;20.60;79.60
27803;DHT22;15182;48.174;11.562;2022-09-03T06:32:30;20.60;79.60
27803;DHT22;15182;48.174;11.562;2022-09-03T06:35:01;20.70;79.70
27803;DHT22;15182;48.174;11.562;2022-09-03T06:37:39;20.70;79.80
27803;DHT22;15182;48.174;11.562;2022-09-03T06:40:12;20.70;80.20
27803;DHT22;15182;48.174;11.562;2022-09-03T06:42:57;20.80;79.70
27803;DHT22;15182;48.174;11.562;2022-09-03T06:45:29;20.80;80.10
27803;DHT22;15182;48.174;11.562;2022-09-03T06:48:01;20.80;80.00
27803;DHT22;15182;48.174;11.562;2022-09-03T06:50:32;20.80;80.10
27803;DHT22;15182;48.174;11.562;2022-09-03T06:53:05;20.80;80.20
27803;DHT22;15182;48.174;11.562;2022-09-03T06:55:37;20.80;80.50
27803;DHT22;15182;48.174;11.562;2022-09-03T06:58:10;20.80;80.60
27803;DHT22;15182;48.174;11.562;2022-09-03T07:00:41;20.80;80.50
27803;DHT22;15182;48.174;11.562;2022-09-03T07:03:12;20.80;80.80
27803;DHT22;15182;48.174;11.562;2022-09-03T07:05:44;20.70;80.80
27803;DHT22;15182;48.174;11.562;2022-09-03T07:08:17;20.70;80.90
27803;DHT22;15182;48.174;11.562;2022-09-03T07:11:00;20.70;81.10
27803;DHT22;15182;48.174;11.562;2022-09-03T07:13:40;20.70;81.20
27803;DHT22;15182;48.174;11.562;2022-09-03T07:16:14;20.70;81.20
27803;DHT22;15182;48.174;11.562;2022-09-03T07:18:47;20.70;82.30
27803;DHT22;15182;48.174;11.562;2022-09-03T07:21:22;20.70;81.20
27803;DHT22;15182;48.174;11.562;2022-09-03T07:23:56;20.70;81.70
27803;DHT22;15182;48.174;11.562;2022-09-03T07:26:31;20.70;81.80
27803;DHT22;15182;48.174;11.562;2022-09-03T07:29:04;20.70;81.80
27803;DHT22;15182;48.174;11.562;2022-09-03T07:31:40;20.70;81.90
27803;DHT22;15182;48.174;11.562;2022-09-03T07:34:12;20.70;82.30
27803;DHT22;15182;48.174;11.562;2022-09-03T07:36:46;20.70;82.50
27803;DHT22;15182;48.174;11.562;2022-09-03T07:39:19;20.70;82.60
27803;DHT22;15182;48.174;11.562;2022-09-03T07:41:55;20.70;82.60
27803;DHT22;15182;48.174;11.562;2022-09-03T07:44:26;20.70;82.60
27803;DHT22;15182;48.174;11.562;2022-09-03T07:46:57;20.70;82.80
27803;DHT22;15182;48.174;11.562;2022-09-03T07:49:30;20.80;82.90
27803;DHT22;15182;48.174;11.562;2022-09-03T07:52:01;20.80;83.00
27803;DHT22;15182;48.174;11.562;2022-09-03T07:54:36;20.80;83.20
27803;DHT22;15182;48.174;11.562;2022-09-03T07:57:08;20.80;83.30
27803;DHT22;15182;48.174;11.562;2022-09-03T07:59:42;20.80;84.30
27803;DHT22;15182;48.174;11.562;2022-09-03T08:02:13;20.80;83.50
27803;DHT22;15182;48.174;11.562;2022-09-03T08:04:45;20.90;83.70
27803;DHT22;15182;48.174;11.562;2022-09-03T08:07:16;20.90;83.80
27803;DHT22;15182;48.174;11.562;2022-09-03T08:09:48;20.90;83.90
27803;DHT22;15182;48.174;11.562;2022-09-03T08:12:20;21.00;84.30
27803;DHT22;15182;48.174;11.562;2022-09-03T08:14:51;21.00;84.10
27803;DHT22;15182;48.174;11.562;2022-09-03T08:17:24;21.10;84.00
27803;DHT22;15182;48.174;11.562;2022-09-03T08:19:56;21.10;84.00
27803;DHT22;15182;48.174;11.562;2022-09-03T08:22:28;21.20;84.00
27803;DHT22;15182;48.174;11.562;2022-09-03T08:25:02;21.20;84.20
27803;DHT22;15182;48.174;11.562;2022-09-03T08:27:33;21.30;84.90
27803;DHT22;15182;48.174;11.562;2022-09-03T08:30:06;21.30;84.80
27803;DHT22;15182;48.174;11.562;2022-09-03T08:32:39;21.30;84.70
27803;DHT22;15182;48.174;11.562;2022-09-03T08:35:10;21.30;84.90
27803;DHT22;15182;48.174;11.562;2022-09-03T08:37:42;21.40;84.80
27803;DHT22;15182;48.174;11.562;2022-09-03T08:40:18;21.40;84.60
27803;DHT22;15182;48.174;11.562;2022-09-03T08:42:57;21.50;85.10
27803;DHT22;15182;48.174;11.562;2022-09-03T08:45:36;21.50;85.50
27803;DHT22;15182;48.174;11.562;2022-09-03T08:48:11;21.60;85.40
27803;DHT22;15182;48.174;11.562;2022-09-03T08:50:48;21.60;85.60
27803;DHT22;15182;48.174;11.562;2022-09-03T08:53:32;21.70;85.40
27803;DHT22;15182;48.174;11.562;2022-09-03T08:56:12;21.70;85.50
27803;DHT22;15182;48.174;11.562;2022-09-03T08:58:47;21.80;85.50
27803;DHT22;15182;48.174;11.562;2022-09-03T09:01:32;21.90;85.90
27803;DHT22;15182;48.174;11.562;2022-09-03T09:04:26;22.00;86.80
27803;DHT22;15182;48.174;11.562;2022-09-03T09:07:07;22.10;86.80
27803;DHT22;15182;48.174;11.562;2022-09-03T09:09:48;22.20;87.00
27803;DHT22;15182;48.174;11.562;2022-09-03T09:12:28;22.40;86.50
27803;DHT22;15182;48.174;11.562;2022-09-03T09:15:11;22.50;86.60
27803;DHT22;15182;48.174;11.562;2022-09-03T09:18:02;22.60;86.20
27803;DHT22;15182;48.174;11.562;2022-09-03T09:20:39;22.70;86.70
27803;DHT22;15182;48.174;11.562;2022-09-03T09:23:17;22.80;86.60
27803;DHT22;15182;48.174;11.562;2022-09-03T09:25:52;22.90;86.30
27803;DHT22;15182;48.174;11.562;2022-09-03T09:28:28;22.90;86.30
27803;DHT22;15182;48.174;11.562;2022-09-03T09:31:03;23.00;86.10
27803;DHT22;15182;48.174;11.562;2022-09-03T09:33:36;23.10;86.40
27803;DHT22;15182;48.174;11.562;2022-09-03T09:36:09;23.10;86.10
27803;DHT22;15182;48.174;11.562;2022-09-03T09:38:44;23.20;86.90
27803;DHT22;15182;48.174;11.562;2022-09-03T09:41:18;23.30;86.70
27803;DHT22;15182;48.174;11.562;2022-09-03T09:44:01;23.40;86.20
27803;DHT22;15182;48.174;11.562;2022-09-03T09:46:36;23.60;86.00
27803;DHT22;15182;48.174;11.562;2022-09-03T09:49:28;23.70;85.80
27803;DHT22;15182;48.174;11.562;2022-09-03T09:52:10;23.70;85.40
27803;DHT22;15182;48.174;11.562;2022-09-03T09:54:45;23.80;85.60
27803;DHT22;15182;48.174;11.562;2022-09-03T09:57:20;24.00;85.60
27803;DHT22;15182;48.174;11.562;2022-09-03T10:00:04;24.10;85.30
27803;DHT22;15182;48.174;11.562;2022-09-03T10:02:47;24.20;85.20
27803;DHT22;15182;48.174;11.562;2022-09-03T10:05:23;24.20;84.80
27803;DHT22;15182;48.174;11.562;2022-09-03T10:07:54;24.30;84.70
27803;DHT22;15182;48.174;11.562;2022-09-03T10:10:31;24.30;84.50
27803;DHT22;15182;48.174;11.562;2022-09-03T10:13:08;24.30;84.70
27803;DHT22;15182;48.174;11.562;2022-09-03T10:15:46;24.30;84.70
27803;DHT22;15182;48.174;11.562;2022-09-03T10:18:37;24.40;84.50
27803;DHT22;15182;48.174;11.562;2022-09-03T10:21:14;24.40;84.30
27803;DHT22;15182;48.174;11.562;2022-09-03T10:23:53;24.40;84.10
27803;DHT22;15182;48.174;11.562;2022-09-03T10:26:30;24.40;84.10
27803;DHT22;15182;48.174;11.562;2022-09-03T10:29:05;24.40;84.80
27803;DHT22;15182;48.174;11.562;2022-09-03T10:31:44;24.40;85.10
27803;DHT22;15182;48.174;11.562;2022-09-03T10:34:28;24.50;85.40
27803;DHT22;15182;48.174;11.562;2022-09-03T10:37:12;24.60;85.60
27803;DHT22;15182;48.174;11.562;2022-09-03T10:40:05;24.70;85.10
27803;DHT22;15182;48.174;11.562;2022-09-03T10:42:47;24.90;84.80
27803;DHT22;15182;48.174;11.562;2022-09-03T10:45:27;25.10;84.00
27803;DHT22;15182;48.174;11.562;2022-09-03T10:48:34;25.20;83.70
27803;DHT22;15182;48.174;11.562;2022-09-03T10:51:14;25.40;83.50
27803;DHT22;15182;48.174;11.562;2022-09-03T10:54:05;25.50;82.50
27803;DHT22;15182;48.174;11.562;2022-09-03T10:56:45;25.70;81.50
27803;DHT22;15182;48.174;11.562;2022-09-03T10:59:31;25.80;81.10
27803;DHT22;15182;48.174;11.562;2022-09-03T11:02:16;25.90;80.50
27803;DHT22;15182;48.174;11.562;2022-09-03T11:05:06;26.10;80.50
27803;DHT22;15182;48.174;11.562;2022-09-03T11:07:43;26.20;79.70
27803;DHT22;15182;48.174;11.562;2022-09-03T11:10:19;26.40;79.50
27803;DHT22;15182;48.174;11.562;2022-09-03T11:12:58;26.40;79.30
27803;DHT22;15182;48.174;11.562;2022-09-03T11:15:38;26.40;79.40
27803;DHT22;15182;48.174;11.562;2022-09-03T11:18:18;26.40;79.30
27803;DHT22;15182;48.174;11.562;2022-09-03T11:20:56;26.40;79.20
27803;DHT22;15182;48.174;11.562;2022-09-03T11:23:36;26.40;79.00
27803;DHT22;15182;48.174;11.562;2022-09-03T11:26:16;26.40;78.20
27803;DHT22;15182;48.174;11.562;2022-09-03T11:28:53;26.40;79.30
27803;DHT22;15182;48.174;11.562;2022-09-03T11:31:36;26.30;77.60
27803;DHT22;15182;48.174;11.562;2022-09-03T11:34:25;26.30;77.40
27803;DHT22;15182;48.174;11.562;2022-09-03T11:37:06;26.30;77.70
27803;DHT22;15182;48.174;11.562;2022-09-03T11:39:51;26.40;77.80
27803;DHT22;15182;48.174;11.562;2022-09-03T11:42:29;26.40;78.20
27803;DHT22;15182;48.174;11.562;2022-09-03T11:45:20;26.50;77.50
27803;DHT22;15182;48.174;11.562;2022-09-03T11:48:10;26.60;77.50
27803;DHT22;15182;48.174;11.562;2022-09-03T11:50:54;26.70;77.80
27803;DHT22;15182;48.174;11.562;2022-09-03T11:53:32;26.90;76.90
27803;DHT22;15182;48.174;11.562;2022-09-03T11:56:18;27.20;78.80
27803;DHT22;15182;48.174;11.562;2022-09-03T11:59:01;27.50;77.80
27803;DHT22;15182;48.174;11.562;2022-09-03T12:01:45;27.70;76.50
27803;DHT22;15182;48.174;11.562;2022-09-03T12:04:23;28.00;76.50
27803;DHT22;15182;48.174;11.562;2022-09-03T12:07:18;28.30;75.30
27803;DHT22;15182;48.174;11.562;2022-09-03T12:10:18;28.50;75.40
27803;DHT22;15182;48.174;11.562;2022-09-03T12:16:05;29.00;73.50
27803;DHT22;15182;48.174;11.562;2022-09-03T12:18:46;29.20;72.90
27803;DHT22;15182;48.174;11.562;2022-09-03T12:21:20;29.40;73.40
27803;DHT22;15182;48.174;11.562;2022-09-03T12:23:53;29.50;72.90
27803;DHT22;15182;48.174;11.562;2022-09-03T12:26:29;29.70;72.50
27803;DHT22;15182;48.174;11.562;2022-09-03T12:29:17;29.80;72.00
27803;DHT22;15182;48.174;11.562;2022-09-03T12:31:50;29.90;72.70
27803;DHT22;15182;48.174;11.562;2022-09-03T12:34:24;30.00;71.60
27803;DHT22;15182;48.174;11.562;2022-09-03T12:36:56;30.10;70.90
27803;DHT22;15182;48.174;11.562;2022-09-03T12:39:28;30.20;70.50
27803;DHT22;15182;48.174;11.562;2022-09-03T12:42:04;30.30;70.40
27803;DHT22;15182;48.174;11.562;2022-09-03T12:44:39;30.30;70.00
27803;DHT22;15182;48.174;11.562;2022-09-03T12:47:13;30.40;69.70
27803;DHT22;15182;48.174;11.562;2022-09-03T12:49:46;30.40;69.60
27803;DHT22;15182;48.174;11.562;2022-09-03T12:52:23;30.50;69.40
27803;DHT22;15182;48.174;11.562;2022-09-03T12:54:59;30.50;68.90
27803;DHT22;15182;48.174;11.562;2022-09-03T12:57:37;30.50;69.20
27803;DHT22;15182;48.174;11.562;2022-09-03T13:00:12;30.50;69.10
27803;DHT22;15182;48.174;11.562;2022-09-03T13:02:51;30.50;69.00
27803;DHT22;15182;48.174;11.562;2022-09-03T13:05:27;30.40;68.50
27803;DHT22;15182;48.174;11.562;2022-09-03T13:08:04;30.30;68.90
27803;DHT22;15182;48.174;11.562;2022-09-03T13:10:40;30.10;68.60
27803;DHT22;15182;48.174;11.562;2022-09-03T13:13:21;30.00;68.90
27803;DHT22;15182;48.174;11.562;2022-09-03T13:16:10;29.80;67.70
27803;DHT22;15182;48.174;11.562;2022-09-03T13:18:54;29.60;67.70
27803;DHT22;15182;48.174;11.562;2022-09-03T13:21:33;29.40;69.40
27803;DHT22;15182;48.174;11.562;2022-09-03T13:24:23;29.20;68.60
27803;DHT22;15182;48.174;11.562;2022-09-03T13:27:07;29.10;68.50
27803;DHT22;15182;48.174;11.562;2022-09-03T13:30:01;28.90;68.50
27803;DHT22;15182;48.174;11.562;2022-09-03T13:32:40;28.80;69.20
27803;DHT22;15182;48.174;11.562;2022-09-03T13:35:25;28.70;69.70
27803;DHT22;15182;48.174;11.562;2022-09-03T13:38:06;28.60;70.00
27803;DHT22;15182;48.174;11.562;2022-09-03T13:40:44;28.60;70.20
27803;DHT22;15182;48.174;11.562;2022-09-03T13:43:25;28.60;69.80
27803;DHT22;15182;48.174;11.562;2022-09-03T13:46:05;28.60;69.60
27803;DHT22;15182;48.174;11.562;2022-09-03T13:48:40;28.60;70.30
27803;DHT22;15182;48.174;11.562;2022-09-03T13:51:39;28.50;70.20
27803;DHT22;15182;48.174;11.562;2022-09-03T13:54:21;28.40;70.80
27803;DHT22;15182;48.174;11.562;2022-09-03T13:56:58;28.30;70.40
27803;DHT22;15182;48.174;11.562;2022-09-03T13:59:39;28.20;70.50
27803;DHT22;15182;48.174;11.562;2022-09-03T14:02:25;28.10;70.60
27803;DHT22;15182;48.174;11.562;2022-09-03T14:05:05;28.10;71.80
27803;DHT22;15182;48.174;11.562;2022-09-03T14:07:45;28.00;71.20
27803;DHT22;15182;48.174;11.562;2022-09-03T14:10:22;27.90;70.80
27803;DHT22;15182;48.174;11.562;2022-09-03T14:13:05;27.80;71.50
27803;DHT22;15182;48.174;11.562;2022-09-03T14:15:45;27.80;71.50
27803;DHT22;15182;48.174;11.562;2022-09-03T14:18:31;27.70;72.20
27803;DHT22;15182;48.174;11.562;2022-09-03T14:21:07;27.60;72.50
27803;DHT22;15182;48.174;11.562;2022-09-03T14:23:43;27.50;72.80
27803;DHT22;15182;48.174;11.562;2022-09-03T14:26:21;27.40;73.50
27803;DHT22;15182;48.174;11.562;2022-09-03T14:28:59;27.40;74.50
27803;DHT22;15182;48.174;11.562;2022-09-03T14:32:05;27.30;77.30
27803;DHT22;15182;48.174;11.562;2022-09-03T14:35:08;27.20;78.70
27803;DHT22;15182;48.174;11.562;2022-09-03T14:37:53;27.10;80.00
27803;DHT22;15182;48.174;11.562;2022-09-03T14:40:41;26.90;80.20
27803;DHT22;15182;48.174;11.562;2022-09-03T14:43:25;26.60;80.10
27803;DHT22;15182;48.174;11.562;2022-09-03T14:46:18;26.30;81.20
27803;DHT22;15182;48.174;11.562;2022-09-03T14:49:10;26.00;82.40
27803;DHT22;15182;48.174;11.562;2022-09-03T14:52:05;25.70;82.90
27803;DHT22;15182;48.174;11.562;2022-09-03T14:54:57;25.40;83.00
27803;DHT22;15182;48.174;11.562;2022-09-03T14:57:53;25.20;84.20
27803;DHT22;15182;48.174;11.562;2022-09-03T15:00:35;25.00;84.80
27803;DHT22;15182;48.174;11.562;2022-09-03T15:03:44;24.80;85.30
27803;DHT22;15182;48.174;11.562;2022-09-03T15:06:31;24.70;85.90
27803;DHT22;15182;48.174;11.562;2022-09-03T15:09:26;24.60;86.30
27803;DHT22;15182;48.174;11.562;2022-09-03T15:12:05;24.60;86.90
27803;DHT22;15182;48.174;11.562;2022-09-03T15:14:48;24.50;86.90
27803;DHT22;15182;48.174;11.562;2022-09-03T15:17:32;24.40;87.60
27803;DHT22;15182;48.174;11.562;2022-09-03T15:20:19;24.40;88.60
27803;DHT22;15182;48.174;11.562;2022-09-03T15:23:15;24.30;87.80
27803;DHT22;15182;48.174;11.562;2022-09-03T15:29:06;24.10;88.10
27803;DHT22;15182;48.174;11.562;2022-09-03T15:31:46;24.10;88.70
27803;DHT22;15182;48.174;11.562;2022-09-03T15:34:40;24.10;89.30
27803;DHT22;15182;48.174;11.562;2022-09-03T15:37:18;24.00;89.70
27803;DHT22;15182;48.174;11.562;2022-09-03T15:40:00;24.00;90.00
27803;DHT22;15182;48.174;11.562;2022-09-03T15:42:35;23.90;90.10
27803;DHT22;15182;48.174;11.562;2022-09-03T15:45:13;23.90;90.00
27803;DHT22;15182;48.174;11.562;2022-09-03T15:47:54;23.90;90.10
27803;DHT22;15182;48.174;11.562;2022-09-03T15:50:36;23.80;90.00
27803;DHT22;15182;48.174;11.562;2022-09-03T15:53:27;23.70;90.10
27803;DHT22;15182;48.174;11.562;2022-09-03T15:56:06;23.70;90.00
27803;DHT22;15182;48.174;11.562;2022-09-03T15:58:51;23.70;90.20
27803;DHT22;15182;48.174;11.562;2022-09-03T16:01:38;23.60;90.10
27803;DHT22;15182;48.174;11.562;2022-09-03T16:04:27;23.60;90.70
27803;DHT22;15182;48.174;11.562;2022-09-03T16:07:13;23.60;90.30
27803;DHT22;15182;48.174;11.562;2022-09-03T16:09:55;23.50;90.40
27803;DHT22;15182;48.174;11.562;2022-09-03T16:12:38;23.50;90.40
27803;DHT22;15182;48.174;11.562;2022-09-03T16:15:17;23.50;90.40
27803;DHT22;15182;48.174;11.562;2022-09-03T16:17:54;23.40;90.40
27803;DHT22;15182;48.174;11.562;2022-09-03T16:20:35;23.40;90.60
27803;DHT22;15182;48.174;11.562;2022-09-03T16:23:14;23.40;90.80
27803;DHT22;15182;48.174;11.562;2022-09-03T16:25:51;23.40;90.80
27803;DHT22;15182;48.174;11.562;2022-09-03T16:28:31;23.40;90.90
27803;DHT22;15182;48.174;11.562;2022-09-03T16:31:14;23.40;91.00